sensor_id;sensor_type;location;lat;lon;timestamp;P1;durP1;ratioP1;P2;durP2;ratioP2
37791;SDS011;29527;55.766;37.570;2022-12-18T00:02:20;17.73;;;9.82;;
37791;SDS011;29527;55.766;37.570;2022-12-18T00:04:47;13.23;;;7.13;;
37791;SDS011;29527;55.766;37.570;2022-12-18T00:07:12;15.75;;;7.88;;
37791;SDS011;29527;55.766;37.570;2022-12-18T00:09:37;15.77;;;8.40;;
37791;SDS011;29527;55.766;37.570;2022-12-18T00:12:03;17.33;;;8.65;;
37791;SDS011;29527;55.766;37.570;2022-12-18T00:14:29;18.73;;;8.80;;
37791;SDS011;29527;55.766;37.570;2022-12-18T00:16:54;18.05;;;10.18;;
37791;SDS011;29527;55.766;37.570;2022-12-18T00:19:19;16.52;;;7.30;;
37791;SDS011;29527;55.766;37.570;2022-12-18T00:21:45;16.48;;;9.00;;
37791;SDS011;29527;55.766;37.570;2022-12-18T00:24:11;17.85;;;9.32;;
37791;SDS011;29527;55.766;37.570;2022-12-18T00:26:37;17.15;;;8.35;;
37791;SDS011;29527;55.766;37.570;2022-12-18T00:29:05;16.17;;;8.38;;
37791;SDS011;29527;55.766;37.570;2022-12-18T00:31:33;13.13;;;7.03;;
37791;SDS011;29527;55.766;37.570;2022-12-18T00:33:59;16.35;;;9.10;;
37791;SDS011;29527;55.766;37.570;2022-12-18T00:36:25;14.85;;;7.70;;
37791;SDS011;29527;55.766;37.570;2022-12-18T00:38:53;13.55;;;5.90;;
37791;SDS011;29527;55.766;37.570;2022-12-18T00:41:20;11.70;;;5.35;;
37791;SDS011;29527;55.766;37.570;2022-12-18T00:44:05;14.82;;;7.03;;
37791;SDS011;29527;55.766;37.570;2022-12-18T00:46:32;15.10;;;9.23;;
37791;SDS011;29527;55.766;37.570;2022-12-18T00:48:59;16.50;;;7.68;;
37791;SDS011;29527;55.766;37.570;2022-12-18T00:51:25;17.33;;;9.45;;
37791;SDS011;29527;55.766;37.570;2022-12-18T00:53:52;17.40;;;8.43;;
37791;SDS011;29527;55.766;37.570;2022-12-18T00:56:17;14.95;;;9.10;;
37791;SDS011;29527;55.766;37.570;2022-12-18T00:58:43;14.73;;;9.30;;
37791;SDS011;29527;55.766;37.570;2022-12-18T01:01:08;13.73;;;8.27;;
37791;SDS011;29527;55.766;37.570;2022-12-18T01:03:34;13.70;;;8.23;;
37791;SDS011;29527;55.766;37.570;2022-12-18T01:06:04;15.07;;;8.95;;
37791;SDS011;29527;55.766;37.570;2022-12-18T01:08:34;14.45;;;8.73;;
37791;SDS011;29527;55.766;37.570;2022-12-18T01:11:00;15.10;;;8.48;;
37791;SDS011;29527;55.766;37.570;2022-12-18T01:13:26;14.05;;;8.00;;
37791;SDS011;29527;55.766;37.570;2022-12-18T01:15:52;14.05;;;8.05;;
37791;SDS011;29527;55.766;37.570;2022-12-18T01:18:17;15.73;;;8.55;;
37791;SDS011;29527;55.766;37.570;2022-12-18T01:20:43;12.32;;;5.80;;
37791;SDS011;29527;55.766;37.570;2022-12-18T01:23:08;16.35;;;8.15;;
37791;SDS011;29527;55.766;37.570;2022-12-18T01:25:37;12.15;;;6.82;;
37791;SDS011;29527;55.766;37.570;2022-12-18T01:28:03;12.82;;;7.97;;
37791;SDS011;29527;55.766;37.570;2022-12-18T01:30:28;13.38;;;8.02;;
37791;SDS011;29527;55.766;37.570;2022-12-18T01:32:54;15.13;;;7.68;;
37791;SDS011;29527;55.766;37.570;2022-12-18T01:35:19;13.40;;;8.10;;
37791;SDS011;29527;55.766;37.570;2022-12-18T01:37:45;14.07;;;8.45;;
37791;SDS011;29527;55.766;37.570;2022-12-18T01:40:10;12.20;;;7.57;;
37791;SDS011;29527;55.766;37.570;2022-12-18T01:42:36;15.82;;;7.57;;
37791;SDS011;29527;55.766;37.570;2022-12-18T01:47:46;14.82;;;7.55;;
37791;SDS011;29527;55.766;37.570;2022-12-18T01:52:43;14.48;;;8.00;;
37791;SDS011;29527;55.766;37.570;2022-12-18T01:55:12;14.32;;;8.00;;
37791;SDS011;29527;55.766;37.570;2022-12-18T01:57:40;13.52;;;7.82;;
37791;SDS011;29527;55.766;37.570;2022-12-18T02:00:08;13.10;;;7.35;;
37791;SDS011;29527;55.766;37.570;2022-12-18T02:02:40;11.95;;;7.03;;
37791;SDS011;29527;55.766;37.570;2022-12-18T02:05:06;13.00;;;7.55;;
37791;SDS011;29527;55.766;37.570;2022-12-18T02:10:21;12.95;;;7.57;;
37791;SDS011;29527;55.766;37.570;2022-12-18T02:12:56;12.45;;;7.38;;
37791;SDS011;29527;55.766;37.570;2022-12-18T02:18:05;12.40;;;6.85;;
37791;SDS011;29527;55.766;37.570;2022-12-18T02:20:39;13.13;;;6.60;;
37791;SDS011;29527;55.766;37.570;2022-12-18T02:28:36;14.40;;;7.68;;
37791;SDS011;29527;55.766;37.570;2022-12-18T02:31:10;14.13;;;6.85;;
37791;SDS011;29527;55.766;37.570;2022-12-18T02:33:39;13.27;;;7.50;;
37791;SDS011;29527;55.766;37.570;2022-12-18T02:36:06;11.27;;;7.10;;
37791;SDS011;29527;55.766;37.570;2022-12-18T02:38:34;11.80;;;6.93;;
37791;SDS011;29527;55.766;37.570;2022-12-18T02:41:00;13.13;;;7.38;;
37791;SDS011;29527;55.766;37.570;2022-12-18T02:43:27;10.70;;;6.55;;
37791;SDS011;29527;55.766;37.570;2022-12-18T02:45:56;10.77;;;6.97;;
37791;SDS011;29527;55.766;37.570;2022-12-18T02:48:34;12.80;;;7.45;;
37791;SDS011;29527;55.766;37.570;2022-12-18T02:51:21;12.50;;;7.53;;
37791;SDS011;29527;55.766;37.570;2022-12-18T02:53:58;12.02;;;6.85;;
37791;SDS011;29527;55.766;37.570;2022-12-18T02:56:53;11.80;;;7.38;;
37791;SDS011;29527;55.766;37.570;2022-12-18T02:59:24;12.77;;;7.28;;
37791;SDS011;29527;55.766;37.570;2022-12-18T03:02:04;10.48;;;6.80;;
37791;SDS011;29527;55.766;37.570;2022-12-18T03:04:51;10.88;;;6.75;;
37791;SDS011;29527;55.766;37.570;2022-12-18T03:07:45;11.35;;;6.60;;
37791;SDS011;29527;55.766;37.570;2022-12-18T03:10:19;10.02;;;6.22;;
37791;SDS011;29527;55.766;37.570;2022-12-18T03:15:49;12.18;;;7.13;;
37791;SDS011;29527;55.766;37.570;2022-12-18T03:18:35;10.25;;;6.57;;
37791;SDS011;29527;55.766;37.570;2022-12-18T03:21:03;15.27;;;7.32;;
37791;SDS011;29527;55.766;37.570;2022-12-18T03:23:33;11.02;;;6.80;;
37791;SDS011;29527;55.766;37.570;2022-12-18T03:26:04;11.13;;;7.38;;
37791;SDS011;29527;55.766;37.570;2022-12-18T03:28:33;10.40;;;6.50;;
37791;SDS011;29527;55.766;37.570;2022-12-18T03:31:02;11.02;;;6.22;;
37791;SDS011;29527;55.766;37.570;2022-12-18T03:36:38;10.30;;;6.63;;
37791;SDS011;29527;55.766;37.570;2022-12-18T03:39:03;11.40;;;6.47;;
37791;SDS011;29527;55.766;37.570;2022-12-18T03:41:31;9.38;;;6.05;;
37791;SDS011;29527;55.766;37.570;2022-12-18T03:46:42;10.68;;;6.18;;
37791;SDS011;29527;55.766;37.570;2022-12-18T03:49:20;9.15;;;6.00;;
37791;SDS011;29527;55.766;37.570;2022-12-18T03:52:03;10.32;;;6.15;;
37791;SDS011;29527;55.766;37.570;2022-12-18T03:54:34;9.95;;;6.22;;
37791;SDS011;29527;55.766;37.570;2022-12-18T03:57:04;8.25;;;5.43;;
37791;SDS011;29527;55.766;37.570;2022-12-18T03:59:34;10.25;;;6.50;;
37791;SDS011;29527;55.766;37.570;2022-12-18T04:02:02;9.88;;;5.93;;
37791;SDS011;29527;55.766;37.570;2022-12-18T04:04:31;12.73;;;7.10;;
37791;SDS011;29527;55.766;37.570;2022-12-18T04:06:58;10.75;;;6.60;;
37791;SDS011;29527;55.766;37.570;2022-12-18T04:09:24;12.13;;;6.32;;
37791;SDS011;29527;55.766;37.570;2022-12-18T04:11:51;9.75;;;5.65;;
37791;SDS011;29527;55.766;37.570;2022-12-18T04:14:17;8.90;;;5.88;;
37791;SDS011;29527;55.766;37.570;2022-12-18T04:16:42;9.70;;;5.88;;
37791;SDS011;29527;55.766;37.570;2022-12-18T04:19:08;9.88;;;6.07;;
37791;SDS011;29527;55.766;37.570;2022-12-18T04:21:33;9.30;;;6.18;;
37791;SDS011;29527;55.766;37.570;2022-12-18T04:23:58;9.05;;;6.05;;
37791;SDS011;29527;55.766;37.570;2022-12-18T04:26:24;8.88;;;5.63;;
37791;SDS011;29527;55.766;37.570;2022-12-18T04:28:49;10.70;;;6.10;;
37791;SDS011;29527;55.766;37.570;2022-12-18T04:31:15;8.07;;;5.28;;
37791;SDS011;29527;55.766;37.570;2022-12-18T04:33:40;8.80;;;5.78;;
37791;SDS011;29527;55.766;37.570;2022-12-18T04:36:06;9.90;;;5.72;;
37791;SDS011;29527;55.766;37.570;2022-12-18T04:38:32;9.77;;;5.95;;
37791;SDS011;29527;55.766;37.570;2022-12-18T04:40:57;7.93;;;5.38;;
37791;SDS011;29527;55.766;37.570;2022-12-18T04:43:23;9.07;;;5.55;;
37791;SDS011;29527;55.766;37.570;2022-12-18T04:45:48;9.55;;;5.53;;
37791;SDS011;29527;55.766;37.570;2022-12-18T04:48:14;9.88;;;6.05;;
37791;SDS011;29527;55.766;37.570;2022-12-18T04:50:39;10.02;;;6.10;;
37791;SDS011;29527;55.766;37.570;2022-12-18T04:53:05;9.50;;;5.93;;
37791;SDS011;29527;55.766;37.570;2022-12-18T04:55:30;11.80;;;6.28;;
37791;SDS011;29527;55.766;37.570;2022-12-18T04:57:55;9.50;;;6.03;;
37791;SDS011;29527;55.766;37.570;2022-12-18T05:00:21;10.65;;;6.03;;
37791;SDS011;29527;55.766;37.570;2022-12-18T05:02:47;12.50;;;6.22;;
37791;SDS011;29527;55.766;37.570;2022-12-18T05:05:12;10.18;;;6.10;;
37791;SDS011;29527;55.766;37.570;2022-12-18T05:07:38;8.07;;;5.50;;
37791;SDS011;29527;55.766;37.570;2022-12-18T05:10:04;10.30;;;6.13;;
37791;SDS011;29527;55.766;37.570;2022-12-18T05:12:32;9.30;;;5.95;;
37791;SDS011;29527;55.766;37.570;2022-12-18T05:14:58;9.43;;;5.72;;
37791;SDS011;29527;55.766;37.570;2022-12-18T05:17:23;10.00;;;5.90;;
37791;SDS011;29527;55.766;37.570;2022-12-18T05:19:49;9.38;;;5.90;;
37791;SDS011;29527;55.766;37.570;2022-12-18T05:22:14;13.02;;;6.40;;
37791;SDS011;29527;55.766;37.570;2022-12-18T05:24:39;9.07;;;5.65;;
37791;SDS011;29527;55.766;37.570;2022-12-18T05:27:05;9.40;;;5.65;;
37791;SDS011;29527;55.766;37.570;2022-12-18T05:29:31;8.93;;;6.03;;
37791;SDS011;29527;55.766;37.570;2022-12-18T05:31:56;10.10;;;6.05;;
37791;SDS011;29527;55.766;37.570;2022-12-18T05:34:22;11.05;;;5.95;;
37791;SDS011;29527;55.766;37.570;2022-12-18T05:36:47;8.60;;;5.90;;
37791;SDS011;29527;55.766;37.570;2022-12-18T05:39:12;10.35;;;6.22;;
37791;SDS011;29527;55.766;37.570;2022-12-18T05:41:38;9.75;;;5.85;;
37791;SDS011;29527;55.766;37.570;2022-12-18T05:44:04;9.52;;;5.70;;
37791;SDS011;29527;55.766;37.570;2022-12-18T05:46:29;10.98;;;6.43;;
37791;SDS011;29527;55.766;37.570;2022-12-18T05:48:54;10.80;;;6.13;;
37791;SDS011;29527;55.766;37.570;2022-12-18T05:51:21;9.30;;;5.63;;
37791;SDS011;29527;55.766;37.570;2022-12-18T05:53:47;11.52;;;6.00;;
37791;SDS011;29527;55.766;37.570;2022-12-18T05:56:15;10.05;;;5.78;;
37791;SDS011;29527;55.766;37.570;2022-12-18T05:58:42;12.25;;;6.78;;
37791;SDS011;29527;55.766;37.570;2022-12-18T06:01:10;12.00;;;6.55;;
37791;SDS011;29527;55.766;37.570;2022-12-18T06:03:38;11.77;;;6.53;;
37791;SDS011;29527;55.766;37.570;2022-12-18T06:06:11;10.05;;;6.25;;
37791;SDS011;29527;55.766;37.570;2022-12-18T06:08:57;9.68;;;5.80;;
37791;SDS011;29527;55.766;37.570;2022-12-18T06:11:25;8.75;;;5.80;;
37791;SDS011;29527;55.766;37.570;2022-12-18T06:13:52;9.48;;;6.07;;
37791;SDS011;29527;55.766;37.570;2022-12-18T06:16:18;10.25;;;5.93;;
37791;SDS011;29527;55.766;37.570;2022-12-18T06:18:44;10.05;;;6.30;;
37791;SDS011;29527;55.766;37.570;2022-12-18T06:21:09;11.80;;;5.63;;
37791;SDS011;29527;55.766;37.570;2022-12-18T06:23:35;11.77;;;6.10;;
37791;SDS011;29527;55.766;37.570;2022-12-18T06:26:18;9.45;;;5.45;;
37791;SDS011;29527;55.766;37.570;2022-12-18T06:28:44;10.95;;;6.13;;
37791;SDS011;29527;55.766;37.570;2022-12-18T06:31:10;8.68;;;5.72;;
37791;SDS011;29527;55.766;37.570;2022-12-18T06:33:36;9.20;;;5.72;;
37791;SDS011;29527;55.766;37.570;2022-12-18T06:36:09;10.00;;;5.93;;
37791;SDS011;29527;55.766;37.570;2022-12-18T06:38:38;9.65;;;5.75;;
37791;SDS011;29527;55.766;37.570;2022-12-18T06:41:08;12.27;;;6.70;;
37791;SDS011;29527;55.766;37.570;2022-12-18T06:43:35;8.95;;;5.65;;
37791;SDS011;29527;55.766;37.570;2022-12-18T06:46:01;8.65;;;5.85;;
37791;SDS011;29527;55.766;37.570;2022-12-18T06:48:28;9.85;;;6.10;;
37791;SDS011;29527;55.766;37.570;2022-12-18T06:50:54;14.15;;;6.00;;
37791;SDS011;29527;55.766;37.570;2022-12-18T06:53:20;9.18;;;5.55;;
37791;SDS011;29527;55.766;37.570;2022-12-18T06:55:45;9.63;;;5.82;;
37791;SDS011;29527;55.766;37.570;2022-12-18T06:58:11;9.82;;;5.63;;
37791;SDS011;29527;55.766;37.570;2022-12-18T07:00:36;10.05;;;5.70;;
37791;SDS011;29527;55.766;37.570;2022-12-18T07:03:02;9.85;;;6.05;;
37791;SDS011;29527;55.766;37.570;2022-12-18T07:05:27;9.60;;;6.38;;
37791;SDS011;29527;55.766;37.570;2022-12-18T07:07:53;10.70;;;5.90;;
37791;SDS011;29527;55.766;37.570;2022-12-18T07:10:18;8.45;;;5.32;;
37791;SDS011;29527;55.766;37.570;2022-12-18T07:12:43;9.68;;;5.88;;
37791;SDS011;29527;55.766;37.570;2022-12-18T07:15:09;8.77;;;5.70;;
37791;SDS011;29527;55.766;37.570;2022-12-18T07:17:34;9.98;;;5.53;;
37791;SDS011;29527;55.766;37.570;2022-12-18T07:20:00;9.70;;;5.72;;
37791;SDS011;29527;55.766;37.570;2022-12-18T07:22:26;13.57;;;5.45;;
37791;SDS011;29527;55.766;37.570;2022-12-18T07:24:51;14.02;;;6.55;;
37791;SDS011;29527;55.766;37.570;2022-12-18T07:27:17;10.15;;;5.78;;
37791;SDS011;29527;55.766;37.570;2022-12-18T07:29:42;12.45;;;6.00;;
37791;SDS011;29527;55.766;37.570;2022-12-18T07:32:08;10.88;;;6.45;;
37791;SDS011;29527;55.766;37.570;2022-12-18T07:34:34;11.48;;;5.78;;
37791;SDS011;29527;55.766;37.570;2022-12-18T07:36:59;10.65;;;6.03;;
37791;SDS011;29527;55.766;37.570;2022-12-18T07:39:24;10.88;;;5.72;;
37791;SDS011;29527;55.766;37.570;2022-12-18T07:41:50;11.88;;;5.53;;
37791;SDS011;29527;55.766;37.570;2022-12-18T07:44:34;10.95;;;6.30;;
37791;SDS011;29527;55.766;37.570;2022-12-18T07:47:00;10.02;;;5.97;;
37791;SDS011;29527;55.766;37.570;2022-12-18T07:49:25;9.38;;;5.45;;
37791;SDS011;29527;55.766;37.570;2022-12-18T07:51:51;9.27;;;6.10;;
37791;SDS011;29527;55.766;37.570;2022-12-18T07:54:20;12.68;;;6.20;;
37791;SDS011;29527;55.766;37.570;2022-12-18T07:56:45;9.23;;;5.78;;
37791;SDS011;29527;55.766;37.570;2022-12-18T07:59:10;10.02;;;6.10;;
37791;SDS011;29527;55.766;37.570;2022-12-18T08:01:36;8.20;;;5.30;;
37791;SDS011;29527;55.766;37.570;2022-12-18T08:04:01;9.23;;;5.38;;
37791;SDS011;29527;55.766;37.570;2022-12-18T08:06:27;10.40;;;6.13;;
37791;SDS011;29527;55.766;37.570;2022-12-18T08:08:52;9.80;;;6.22;;
37791;SDS011;29527;55.766;37.570;2022-12-18T08:11:18;13.65;;;6.32;;
37791;SDS011;29527;55.766;37.570;2022-12-18T08:13:44;9.05;;;5.90;;
37791;SDS011;29527;55.766;37.570;2022-12-18T08:16:09;11.52;;;6.47;;
37791;SDS011;29527;55.766;37.570;2022-12-18T08:18:35;10.55;;;6.25;;
37791;SDS011;29527;55.766;37.570;2022-12-18T08:21:12;9.70;;;5.90;;
37791;SDS011;29527;55.766;37.570;2022-12-18T08:23:42;9.70;;;5.88;;
37791;SDS011;29527;55.766;37.570;2022-12-18T08:26:08;11.73;;;6.10;;
37791;SDS011;29527;55.766;37.570;2022-12-18T08:28:34;11.93;;;6.50;;
37791;SDS011;29527;55.766;37.570;2022-12-18T08:30:59;10.95;;;6.63;;
37791;SDS011;29527;55.766;37.570;2022-12-18T08:33:25;12.52;;;6.47;;
37791;SDS011;29527;55.766;37.570;2022-12-18T08:35:51;10.90;;;6.32;;
37791;SDS011;29527;55.766;37.570;2022-12-18T08:38:17;13.43;;;7.05;;
37791;SDS011;29527;55.766;37.570;2022-12-18T08:41:02;11.43;;;6.53;;
37791;SDS011;29527;55.766;37.570;2022-12-18T08:43:29;9.30;;;5.72;;
37791;SDS011;29527;55.766;37.570;2022-12-18T08:46:13;8.93;;;5.90;;
37791;SDS011;29527;55.766;37.570;2022-12-18T08:48:39;9.43;;;5.55;;
37791;SDS011;29527;55.766;37.570;2022-12-18T08:51:04;10.90;;;6.15;;
37791;SDS011;29527;55.766;37.570;2022-12-18T08:53:30;9.95;;;6.20;;
37791;SDS011;29527;55.766;37.570;2022-12-18T08:55:58;8.35;;;5.38;;
37791;SDS011;29527;55.766;37.570;2022-12-18T08:58:23;11.18;;;6.32;;
37791;SDS011;29527;55.766;37.570;2022-12-18T09:00:49;8.20;;;5.55;;
37791;SDS011;29527;55.766;37.570;2022-12-18T09:03:15;12.38;;;6.72;;
37791;SDS011;29527;55.766;37.570;2022-12-18T09:05:42;11.80;;;6.75;;
37791;SDS011;29527;55.766;37.570;2022-12-18T09:08:10;14.55;;;7.50;;
37791;SDS011;29527;55.766;37.570;2022-12-18T09:10:41;15.07;;;7.28;;
37791;SDS011;29527;55.766;37.570;2022-12-18T09:13:07;17.55;;;8.05;;
37791;SDS011;29527;55.766;37.570;2022-12-18T09:15:32;14.30;;;7.30;;
37791;SDS011;29527;55.766;37.570;2022-12-18T09:17:58;12.73;;;6.97;;
37791;SDS011;29527;55.766;37.570;2022-12-18T09:20:23;10.57;;;6.55;;
37791;SDS011;29527;55.766;37.570;2022-12-18T09:22:49;8.93;;;5.38;;
37791;SDS011;29527;55.766;37.570;2022-12-18T09:25:14;10.07;;;5.93;;
37791;SDS011;29527;55.766;37.570;2022-12-18T09:27:40;10.48;;;5.88;;
37791;SDS011;29527;55.766;37.570;2022-12-18T09:30:05;9.93;;;5.90;;
37791;SDS011;29527;55.766;37.570;2022-12-18T09:32:32;12.40;;;5.72;;
37791;SDS011;29527;55.766;37.570;2022-12-18T09:34:57;12.43;;;6.78;;
37791;SDS011;29527;55.766;37.570;2022-12-18T09:37:22;13.10;;;6.70;;
37791;SDS011;29527;55.766;37.570;2022-12-18T09:39:48;13.73;;;6.78;;
37791;SDS011;29527;55.766;37.570;2022-12-18T09:42:18;13.63;;;6.85;;
37791;SDS011;29527;55.766;37.570;2022-12-18T09:44:48;12.88;;;7.70;;
37791;SDS011;29527;55.766;37.570;2022-12-18T09:47:49;13.68;;;7.20;;
37791;SDS011;29527;55.766;37.570;2022-12-18T09:50:53;13.95;;;6.40;;
37791;SDS011;29527;55.766;37.570;2022-12-18T09:53:15;8.77;;;5.13;;
37791;SDS011;29527;55.766;37.570;2022-12-18T09:55:45;10.68;;;5.78;;
37791;SDS011;29527;55.766;37.570;2022-12-18T10:00:57;10.75;;;5.03;;
37791;SDS011;29527;55.766;37.570;2022-12-18T10:03:22;9.48;;;5.53;;
37791;SDS011;29527;55.766;37.570;2022-12-18T10:27:22;11.73;;;5.80;;
37791;SDS011;29527;55.766;37.570;2022-12-18T10:29:50;11.15;;;5.38;;
37791;SDS011;29527;55.766;37.570;2022-12-18T10:32:34;7.28;;;4.93;;
37791;SDS011;29527;55.766;37.570;2022-12-18T10:35:00;10.57;;;5.97;;
37791;SDS011;29527;55.766;37.570;2022-12-18T10:37:26;12.48;;;6.55;;
37791;SDS011;29527;55.766;37.570;2022-12-18T10:40:13;14.75;;;7.28;;
37791;SDS011;29527;55.766;37.570;2022-12-18T10:42:40;9.88;;;5.35;;
37791;SDS011;29527;55.766;37.570;2022-12-18T10:45:11;9.95;;;5.47;;
37791;SDS011;29527;55.766;37.570;2022-12-18T10:47:45;9.35;;;5.18;;
37791;SDS011;29527;55.766;37.570;2022-12-18T10:52:56;13.20;;;7.25;;
37791;SDS011;29527;55.766;37.570;2022-12-18T10:55:24;10.68;;;6.05;;
37791;SDS011;29527;55.766;37.570;2022-12-18T10:57:52;12.15;;;6.20;;
37791;SDS011;29527;55.766;37.570;2022-12-18T11:00:30;12.45;;;6.45;;
37791;SDS011;29527;55.766;37.570;2022-12-18T11:02:55;11.52;;;6.10;;
37791;SDS011;29527;55.766;37.570;2022-12-18T11:05:26;9.10;;;5.78;;
37791;SDS011;29527;55.766;37.570;2022-12-18T11:07:57;12.52;;;6.22;;
37791;SDS011;29527;55.766;37.570;2022-12-18T11:13:08;10.25;;;5.72;;
37791;SDS011;29527;55.766;37.570;2022-12-18T11:15:42;12.05;;;5.82;;
37791;SDS011;29527;55.766;37.570;2022-12-18T11:18:15;12.18;;;6.15;;
37791;SDS011;29527;55.766;37.570;2022-12-18T11:20:50;11.70;;;5.43;;
37791;SDS011;29527;55.766;37.570;2022-12-18T11:23:37;14.55;;;5.65;;
37791;SDS011;29527;55.766;37.570;2022-12-18T11:26:18;12.82;;;5.88;;
37791;SDS011;29527;55.766;37.570;2022-12-18T11:31:41;12.40;;;6.53;;
37791;SDS011;29527;55.766;37.570;2022-12-18T11:36:39;15.13;;;8.10;;
37791;SDS011;29527;55.766;37.570;2022-12-18T11:39:18;15.60;;;7.90;;
37791;SDS011;29527;55.766;37.570;2022-12-18T11:42:00;14.50;;;6.22;;
37791;SDS011;29527;55.766;37.570;2022-12-18T11:47:15;13.07;;;6.18;;
37791;SDS011;29527;55.766;37.570;2022-12-18T11:49:43;11.15;;;5.57;;
37791;SDS011;29527;55.766;37.570;2022-12-18T11:54:40;8.02;;;4.65;;
37791;SDS011;29527;55.766;37.570;2022-12-18T12:07:43;9.23;;;5.13;;
37791;SDS011;29527;55.766;37.570;2022-12-18T12:30:13;8.77;;;4.70;;
37791;SDS011;29527;55.766;37.570;2022-12-18T12:37:43;11.52;;;5.50;;
37791;SDS011;29527;55.766;37.570;2022-12-18T12:40:23;9.30;;;4.68;;
37791;SDS011;29527;55.766;37.570;2022-12-18T12:42:57;10.55;;;4.22;;
37791;SDS011;29527;55.766;37.570;2022-12-18T12:45:42;7.95;;;3.97;;
37791;SDS011;29527;55.766;37.570;2022-12-18T12:51:18;17.20;;;8.50;;
37791;SDS011;29527;55.766;37.570;2022-12-18T12:56:13;10.25;;;4.55;;
37791;SDS011;29527;55.766;37.570;2022-12-18T12:58:46;13.63;;;5.55;;
37791;SDS011;29527;55.766;37.570;2022-12-18T13:04:15;7.97;;;4.57;;
37791;SDS011;29527;55.766;37.570;2022-12-18T13:06:58;9.93;;;4.88;;
37791;SDS011;29527;55.766;37.570;2022-12-18T13:09:30;14.88;;;5.95;;
37791;SDS011;29527;55.766;37.570;2022-12-18T13:12:18;13.60;;;5.82;;
37791;SDS011;29527;55.766;37.570;2022-12-18T13:15:12;17.42;;;7.05;;
37791;SDS011;29527;55.766;37.570;2022-12-18T13:17:46;16.70;;;7.03;;
37791;SDS011;29527;55.766;37.570;2022-12-18T13:20:12;13.93;;;6.38;;
37791;SDS011;29527;55.766;37.570;2022-12-18T13:22:46;13.77;;;6.75;;
37791;SDS011;29527;55.766;37.570;2022-12-18T13:28:00;17.10;;;7.82;;
37791;SDS011;29527;55.766;37.570;2022-12-18T13:48:19;20.42;;;8.18;;
37791;SDS011;29527;55.766;37.570;2022-12-18T13:50:48;22.23;;;8.52;;
37791;SDS011;29527;55.766;37.570;2022-12-18T13:53:24;20.38;;;8.68;;
37791;SDS011;29527;55.766;37.570;2022-12-18T13:56:17;18.50;;;8.55;;
37791;SDS011;29527;55.766;37.570;2022-12-18T14:01:44;21.58;;;8.73;;
37791;SDS011;29527;55.766;37.570;2022-12-18T14:04:16;23.48;;;10.25;;
37791;SDS011;29527;55.766;37.570;2022-12-18T14:06:46;20.02;;;8.52;;
37791;SDS011;29527;55.766;37.570;2022-12-18T14:09:13;19.35;;;8.73;;
37791;SDS011;29527;55.766;37.570;2022-12-18T14:11:40;19.95;;;9.57;;
37791;SDS011;29527;55.766;37.570;2022-12-18T14:14:13;20.00;;;9.63;;
37791;SDS011;29527;55.766;37.570;2022-12-18T14:16:41;20.60;;;9.27;;
37791;SDS011;29527;55.766;37.570;2022-12-18T14:19:08;18.33;;;8.10;;
37791;SDS011;29527;55.766;37.570;2022-12-18T14:21:39;20.80;;;8.55;;
37791;SDS011;29527;55.766;37.570;2022-12-18T14:26:33;19.55;;;8.48;;
37791;SDS011;29527;55.766;37.570;2022-12-18T14:29:44;16.80;;;7.97;;
37791;SDS011;29527;55.766;37.570;2022-12-18T14:34:53;14.77;;;6.90;;
37791;SDS011;29527;55.766;37.570;2022-12-18T14:37:25;13.68;;;7.00;;
37791;SDS011;29527;55.766;37.570;2022-12-18T14:39:56;15.30;;;7.07;;
37791;SDS011;29527;55.766;37.570;2022-12-18T14:42:24;16.00;;;7.68;;
37791;SDS011;29527;55.766;37.570;2022-12-18T14:47:56;12.38;;;6.68;;
37791;SDS011;29527;55.766;37.570;2022-12-18T14:50:21;11.75;;;6.30;;
37791;SDS011;29527;55.766;37.570;2022-12-18T14:52:47;10.65;;;5.55;;
37791;SDS011;29527;55.766;37.570;2022-12-18T14:55:16;10.80;;;5.55;;
37791;SDS011;29527;55.766;37.570;2022-12-18T14:57:43;13.90;;;6.55;;
37791;SDS011;29527;55.766;37.570;2022-12-18T15:00:17;10.73;;;5.53;;
37791;SDS011;29527;55.766;37.570;2022-12-18T15:02:45;10.35;;;5.35;;
37791;SDS011;29527;55.766;37.570;2022-12-18T15:05:31;10.48;;;5.20;;
37791;SDS011;29527;55.766;37.570;2022-12-18T15:07:57;9.55;;;5.05;;
37791;SDS011;29527;55.766;37.570;2022-12-18T15:20:40;7.75;;;4.88;;
37791;SDS011;29527;55.766;37.570;2022-12-18T15:26:00;7.68;;;4.53;;
37791;SDS011;29527;55.766;37.570;2022-12-18T15:28:34;9.73;;;5.28;;
37791;SDS011;29527;55.766;37.570;2022-12-18T15:33:41;7.55;;;5.15;;
37791;SDS011;29527;55.766;37.570;2022-12-18T15:36:15;12.52;;;6.03;;
37791;SDS011;29527;55.766;37.570;2022-12-18T15:38:46;10.05;;;5.88;;
37791;SDS011;29527;55.766;37.570;2022-12-18T15:41:13;8.95;;;5.13;;
37791;SDS011;29527;55.766;37.570;2022-12-18T15:43:39;12.02;;;5.40;;
37791;SDS011;29527;55.766;37.570;2022-12-18T15:46:05;11.35;;;5.80;;
37791;SDS011;29527;55.766;37.570;2022-12-18T15:48:40;9.70;;;6.03;;
37791;SDS011;29527;55.766;37.570;2022-12-18T15:51:17;9.90;;;5.45;;
37791;SDS011;29527;55.766;37.570;2022-12-18T15:53:45;10.82;;;4.97;;
37791;SDS011;29527;55.766;37.570;2022-12-18T15:56:13;9.73;;;5.30;;
37791;SDS011;29527;55.766;37.570;2022-12-18T15:58:58;9.00;;;5.25;;
37791;SDS011;29527;55.766;37.570;2022-12-18T16:01:25;9.82;;;4.90;;
37791;SDS011;29527;55.766;37.570;2022-12-18T16:03:52;8.90;;;5.07;;
37791;SDS011;29527;55.766;37.570;2022-12-18T16:06:19;10.27;;;4.80;;
37791;SDS011;29527;55.766;37.570;2022-12-18T16:08:45;8.05;;;5.10;;
37791;SDS011;29527;55.766;37.570;2022-12-18T16:11:29;7.95;;;4.78;;
37791;SDS011;29527;55.766;37.570;2022-12-18T16:14:25;6.88;;;4.60;;
37791;SDS011;29527;55.766;37.570;2022-12-18T16:16:55;9.73;;;4.53;;
37791;SDS011;29527;55.766;37.570;2022-12-18T16:19:23;7.57;;;4.80;;
37791;SDS011;29527;55.766;37.570;2022-12-18T16:21:50;9.63;;;4.53;;
37791;SDS011;29527;55.766;37.570;2022-12-18T16:24:24;7.82;;;4.68;;
37791;SDS011;29527;55.766;37.570;2022-12-18T16:26:51;10.07;;;5.82;;
37791;SDS011;29527;55.766;37.570;2022-12-18T16:29:18;9.25;;;5.03;;
37791;SDS011;29527;55.766;37.570;2022-12-18T16:31:44;10.57;;;5.18;;
37791;SDS011;29527;55.766;37.570;2022-12-18T16:34:20;11.65;;;5.78;;
37791;SDS011;29527;55.766;37.570;2022-12-18T16:36:50;11.10;;;5.78;;
37791;SDS011;29527;55.766;37.570;2022-12-18T16:39:16;10.80;;;5.70;;
37791;SDS011;29527;55.766;37.570;2022-12-18T16:41:42;10.90;;;5.15;;
37791;SDS011;29527;55.766;37.570;2022-12-18T16:44:08;9.23;;;5.00;;
37791;SDS011;29527;55.766;37.570;2022-12-18T16:46:34;6.47;;;3.92;;
37791;SDS011;29527;55.766;37.570;2022-12-18T16:48:59;6.38;;;4.25;;
37791;SDS011;29527;55.766;37.570;2022-12-18T16:51:26;8.02;;;4.50;;
37791;SDS011;29527;55.766;37.570;2022-12-18T16:53:52;8.82;;;4.82;;
37791;SDS011;29527;55.766;37.570;2022-12-18T16:56:19;9.32;;;5.22;;
37791;SDS011;29527;55.766;37.570;2022-12-18T16:58:49;7.80;;;5.03;;
37791;SDS011;29527;55.766;37.570;2022-12-18T17:01:19;10.57;;;5.40;;
37791;SDS011;29527;55.766;37.570;2022-12-18T17:03:50;10.88;;;6.05;;
37791;SDS011;29527;55.766;37.570;2022-12-18T17:06:20;12.57;;;6.80;;
37791;SDS011;29527;55.766;37.570;2022-12-18T17:08:46;11.13;;;6.43;;
37791;SDS011;29527;55.766;37.570;2022-12-18T17:11:12;14.48;;;6.55;;
37791;SDS011;29527;55.766;37.570;2022-12-18T17:13:37;10.60;;;6.13;;
37791;SDS011;29527;55.766;37.570;2022-12-18T17:16:06;10.43;;;6.35;;